createdAt,value
2023-04-29T00:04:17.367Z,99945.43
2023-04-29T00:09:25.989Z,99942.89
2023-04-29T00:14:33.641Z,99940.16
2023-04-29T00:19:41.608Z,99940.73
2023-04-29T00:24:49.277Z,99943.73
2023-04-29T00:29:57.549Z,99945.54
2023-04-29T00:35:06.425Z,99942.63
2023-04-29T00:40:15.714Z,99934.65
2023-04-29T00:45:24.237Z,99924.22
2023-04-29T00:50:32.611Z,99922.52
2023-04-29T00:55:41.150Z,99918.02
2023-04-29T01:00:50.019Z,99914.75
2023-04-29T01:06:07.573Z,99911.16
2023-04-29T01:11:18.020Z,99911.58
2023-04-29T01:16:33.292Z,99913.27
2023-04-29T01:21:51.360Z,99913.70
2023-04-29T01:27:06.044Z,99916.27
2023-04-29T01:32:33.340Z,99915.70
2023-04-29T01:37:51.517Z,99912.89
2023-04-29T01:43:04.959Z,99912.66
2023-04-29T01:48:14.778Z,99908.08
2023-04-29T01:53:23.316Z,99906.11
2023-04-29T01:58:32.357Z,99904.16
2023-04-29T02:04:00.326Z,99902.18
2023-04-29T02:09:08.287Z,99903.71
2023-04-29T02:14:17.871Z,99902.13
2023-04-29T02:19:27.699Z,99899.54
2023-04-29T02:24:37.290Z,99896.77
2023-04-29T02:29:45.564Z,99891.45
2023-04-29T02:34:54.073Z,99891.01
2023-04-29T02:40:02.999Z,99885.52
2023-04-29T02:45:13.908Z,99880.02
2023-04-29T02:50:22.408Z,99877.85
2023-04-29T02:55:31.213Z,99876.04
2023-04-29T03:00:44.279Z,99871.42
2023-04-29T03:05:51.502Z,99868.90
2023-04-29T03:10:59.627Z,99870.54
2023-04-29T03:16:08.985Z,99868.16
2023-04-29T03:21:18.039Z,99865.79
2023-04-29T03:26:26.679Z,99857.04
2023-04-29T03:31:35.681Z,99868.65
2023-04-29T03:36:42.961Z,99865.70
2023-04-29T03:41:52.523Z,99867.22
2023-04-29T03:47:01.339Z,99866.80
2023-04-29T03:52:09.533Z,99864.64
2023-04-29T03:57:18.106Z,99863.15
2023-04-29T04:02:27.049Z,99862.84
2023-04-29T04:07:35.549Z,99861.64
2023-04-29T04:13:13.644Z,99860.76
2023-04-29T04:18:21.301Z,99856.20
2023-04-29T04:23:29.222Z,99853.24
2023-04-29T04:28:38.018Z,99849.92
2023-04-29T04:34:02.710Z,99848.33
2023-04-29T04:39:12.007Z,99846.20
2023-04-29T04:44:20.394Z,99843.36
2023-04-29T04:49:37.496Z,99844.50
2023-04-29T04:54:48.715Z,99843.55
2023-04-29T04:59:59.593Z,99845.53
2023-04-29T05:05:09.021Z,99846.80
2023-04-29T05:10:18.257Z,99842.52
2023-04-29T05:15:30.010Z,99844.36
2023-04-29T05:20:40.439Z,99843.95
2023-04-29T05:25:48.188Z,99849.33
2023-04-29T05:30:58.170Z,99849.66
2023-04-29T05:36:07.125Z,99845.70
2023-04-29T05:41:15.821Z,99846.08
2023-04-29T05:46:37.579Z,99845.68
2023-04-29T05:51:45.971Z,99835.85
2023-04-29T05:56:54.446Z,99828.48
2023-04-29T06:02:02.916Z,99820.46
2023-04-29T06:07:13.197Z,99817.01
2023-04-29T06:12:39.250Z,99821.00
2023-04-29T06:17:46.644Z,99823.20
2023-04-29T06:22:55.323Z,99819.85
2023-04-29T06:28:08.884Z,99815.27
2023-04-29T06:33:21.410Z,99809.65
2023-04-29T06:38:30.805Z,99809.13
2023-04-29T06:43:58.316Z,99807.44
2023-04-29T06:49:38.345Z,99808.60
2023-04-29T06:54:47.404Z,99810.39
2023-04-29T06:59:56.196Z,99808.95
2023-04-29T07:05:06.834Z,99797.69
2023-04-29T07:10:15.670Z,99794.56
2023-04-29T07:15:23.971Z,99795.44
2023-04-29T07:20:32.021Z,99797.61
2023-04-29T07:25:40.856Z,99796.24
2023-04-29T07:30:50.390Z,99792.19
2023-04-29T07:35:59.243Z,99787.41
2023-04-29T07:41:08.027Z,99788.44
2023-04-29T07:46:16.764Z,99787.38
2023-04-29T07:51:25.799Z,99784.73
2023-04-29T07:56:35.280Z,99781.48
2023-04-29T08:01:44.144Z,99779.22
2023-04-29T08:06:53.890Z,99777.98
2023-04-29T08:12:02.203Z,99777.40
2023-04-29T08:17:10.352Z,99775.79
2023-04-29T08:22:18.579Z,99771.98
2023-04-29T08:27:26.471Z,99766.95
2023-04-29T08:32:35.658Z,99766.34
2023-04-29T08:37:43.539Z,99765.09
2023-04-29T08:42:52.433Z,99755.43
2023-04-29T08:48:03.141Z,99753.49
2023-04-29T08:53:11.813Z,99748.97
2023-04-29T08:58:21.228Z,99739.41
2023-04-29T09:03:33.741Z,99739.70
2023-04-29T09:08:42.558Z,99747.15
2023-04-29T09:13:50.531Z,99741.54
2023-04-29T09:18:58.848Z,99739.59
2023-04-29T09:24:08.077Z,99730.11
2023-04-29T09:29:16.696Z,99718.80
2023-04-29T09:34:36.196Z,99730.09
2023-04-29T09:39:44.006Z,99732.90
2023-04-29T09:44:52.696Z,99725.63
2023-04-29T09:50:16.798Z,99728.70
2023-04-29T09:55:24.369Z,99721.88
2023-04-29T10:00:35.935Z,99719.88
2023-04-29T10:05:44.377Z,99719.83
2023-04-29T10:10:58.223Z,99715.29
2023-04-29T10:16:17.720Z,99713.48
2023-04-29T10:21:30.370Z,99709.98
2023-04-29T10:26:41.299Z,99703.29
2023-04-29T10:31:51.046Z,99700.95
2023-04-29T10:36:59.648Z,99700.16
2023-04-29T10:42:18.196Z,99698.30
2023-04-29T10:47:26.402Z,99689.97
2023-04-29T10:52:53.484Z,99684.94
2023-04-29T10:58:01.301Z,99682.35
2023-04-29T11:03:10.988Z,99685.48
2023-04-29T11:08:24.634Z,99675.94
2023-04-29T11:13:34.439Z,99670.04
2023-04-29T11:19:08.734Z,99678.93
2023-04-29T11:24:19.929Z,99668.33
2023-04-29T11:29:28.485Z,99666.73
2023-04-29T11:34:36.108Z,99661.02
2023-04-29T11:39:43.945Z,99655.40
2023-04-29T11:44:53.473Z,99651.95
2023-04-29T11:50:10.135Z,99654.03
2023-04-29T11:55:18.004Z,99643.35
2023-04-29T12:00:26.424Z,99650.64
2023-04-29T12:05:34.489Z,99645.25
2023-04-29T12:10:42.494Z,99649.70
2023-04-29T12:15:50.867Z,99645.93
2023-04-29T12:20:59.205Z,99636.11
2023-04-29T12:26:08.528Z,99635.34
2023-04-29T12:31:18.794Z,99629.05
2023-04-29T12:36:27.570Z,99631.77
2023-04-29T12:41:45.157Z,99630.91
2023-04-29T12:46:54.211Z,99623.27
2023-04-29T12:52:03.241Z,99623.92
2023-04-29T12:57:11.456Z,99620.29
2023-04-29T13:02:19.833Z,99611.98
2023-04-29T13:07:27.509Z,99603.59
2023-04-29T13:12:34.865Z,99599.02
2023-04-29T13:17:42.457Z,99598.58
2023-04-29T13:22:50.694Z,99595.77
2023-04-29T13:27:58.856Z,99591.90
2023-04-29T13:33:12.421Z,99588.83
2023-04-29T13:38:21.042Z,99582.63
2023-04-29T13:43:37.546Z,99578.76
2023-04-29T13:54:48.388Z,99581.98
2023-04-29T14:04:34.525Z,99574.68
2023-04-29T14:09:42.071Z,99572.45
2023-04-29T14:14:49.928Z,99572.91
2023-04-29T14:19:57.791Z,99568.29
2023-04-29T14:25:05.952Z,99559.13
2023-04-29T14:30:15.277Z,99549.23
2023-04-29T14:35:23.540Z,99549.21
2023-04-29T14:40:31.646Z,99547.95
2023-04-29T14:45:39.475Z,99540.71
2023-04-29T14:50:47.222Z,99538.30
2023-04-29T14:55:55.050Z,99533.82
2023-04-29T15:01:03.107Z,99531.95
2023-04-29T15:06:10.910Z,99534.20
2023-04-29T15:11:18.556Z,99530.59
2023-04-29T15:16:26.088Z,99522.91
2023-04-29T15:21:34.868Z,99523.42
2023-04-29T15:26:42.747Z,99525.14
2023-04-29T15:31:50.267Z,99529.36
2023-04-29T15:36:57.888Z,99527.02
2023-04-29T15:42:05.379Z,99526.48
2023-04-29T15:47:13.535Z,99526.85
2023-04-29T15:52:21.149Z,99527.53
2023-04-29T15:57:28.833Z,99521.23
2023-04-29T16:02:36.392Z,99513.69
2023-04-29T16:07:43.869Z,99506.90
2023-04-29T16:12:51.298Z,99512.48
2023-04-29T16:18:00.222Z,99512.63
2023-04-29T16:23:07.784Z,99507.77
2023-04-29T16:28:15.142Z,99506.79
2023-04-29T16:33:22.632Z,99509.84
2023-04-29T16:38:31.250Z,99510.00
2023-04-29T16:43:38.708Z,99510.73
2023-04-29T16:48:46.372Z,99509.20
2023-04-29T16:53:55.205Z,99509.90
2023-04-29T16:59:02.646Z,99514.55
2023-04-29T17:04:10.827Z,99514.57
2023-04-29T17:09:18.669Z,99519.92
2023-04-29T17:14:26.779Z,99520.85
2023-04-29T17:19:34.987Z,99514.56
2023-04-29T17:24:45.390Z,99516.59
2023-04-29T17:29:54.025Z,99518.33
2023-04-29T17:35:02.757Z,99517.09
2023-04-29T17:40:12.253Z,99518.96
2023-04-29T17:45:20.147Z,99491.05
2023-04-29T17:50:28.497Z,99514.34
2023-04-29T17:55:36.395Z,99511.25
2023-04-29T18:00:43.861Z,99510.82
2023-04-29T18:05:51.510Z,99507.00
2023-04-29T18:10:59.178Z,99501.00
2023-04-29T18:16:07.710Z,99499.64
2023-04-29T18:21:21.471Z,99503.41
2023-04-29T18:26:30.331Z,99512.33
2023-04-29T18:31:37.850Z,99516.99
2023-04-29T18:36:45.622Z,99519.39
2023-04-29T18:41:53.750Z,99515.80
2023-04-29T18:47:01.257Z,99516.31
2023-04-29T18:52:09.243Z,99519.53
2023-04-29T18:57:17.160Z,99520.80
2023-04-29T19:02:25.088Z,99522.83
2023-04-29T19:07:33.153Z,99525.85
2023-04-29T19:12:40.517Z,99529.23
2023-04-29T19:17:48.395Z,99528.92
2023-04-29T19:22:57.512Z,99525.21
2023-04-29T19:28:04.841Z,99526.55
2023-04-29T19:33:12.810Z,99529.20
2023-04-29T19:38:20.938Z,99533.07
2023-04-29T19:43:28.328Z,99528.37
2023-04-29T19:48:36.146Z,99529.93
2023-04-29T19:53:44.507Z,99532.69
2023-04-29T19:58:52.413Z,99536.80
2023-04-29T20:04:00.590Z,99537.54
2023-04-29T20:09:09.911Z,99539.48
2023-04-29T20:14:17.276Z,99533.91
2023-04-29T20:19:24.855Z,99542.95
2023-04-29T20:24:32.396Z,99545.77
2023-04-29T20:29:40.007Z,99542.30
2023-04-29T20:34:47.493Z,99546.45
2023-04-29T20:39:55.215Z,99536.09
2023-04-29T20:45:03.573Z,99529.33
2023-04-29T20:50:12.583Z,99524.23
2023-04-29T20:55:20.273Z,99520.82
2023-04-29T21:00:27.643Z,99517.77
2023-04-29T21:05:35.236Z,99519.80
2023-04-29T21:10:42.981Z,99520.77
2023-04-29T21:15:50.750Z,99518.61
2023-04-29T21:20:58.398Z,99518.39
2023-04-29T21:26:06.429Z,99521.18
2023-04-29T21:31:16.693Z,99527.07
2023-04-29T21:36:24.333Z,99529.61
2023-04-29T21:41:35.127Z,99525.16
2023-04-29T21:46:43.108Z,99524.56
2023-04-29T21:51:51.298Z,99522.34
2023-04-29T21:56:58.876Z,99519.61
2023-04-29T22:02:15.399Z,99518.35
2023-04-29T22:07:24.405Z,99544.61
2023-04-29T22:12:31.827Z,99544.96
2023-04-29T22:17:39.499Z,99545.92
2023-04-29T22:22:46.862Z,99546.66
2023-04-29T22:27:54.517Z,99556.45
2023-04-29T22:33:02.199Z,99561.20
2023-04-29T22:38:10.062Z,99569.19
2023-04-29T22:43:17.659Z,99571.34
2023-04-29T22:48:27.659Z,99571.91
2023-04-29T22:53:35.664Z,99581.80
2023-04-29T22:58:43.439Z,99584.80
2023-04-29T23:03:51.024Z,99593.10
2023-04-29T23:08:58.458Z,99593.77
2023-04-29T23:14:06.153Z,99590.30
2023-04-29T23:19:13.497Z,99587.98
2023-04-29T23:24:20.937Z,99586.09
2023-04-29T23:29:28.397Z,99590.86
2023-04-29T23:34:35.977Z,99589.83
2023-04-29T23:39:43.429Z,99592.16
2023-04-29T23:44:51.322Z,99599.48
2023-04-29T23:49:58.995Z,99608.81
2023-04-29T23:55:07.331Z,99615.30
